createdAt,value
2018-03-20T00:00:36.076Z,44.92
2018-03-20T00:01:36.228Z,49.80
2018-03-20T00:02:36.402Z,48.83
2018-03-20T00:03:36.574Z,49.07
2018-03-20T00:04:36.742Z,47.12
2018-03-20T00:05:36.908Z,46.88
2018-03-20T00:06:37.084Z,50.54
2018-03-20T00:07:37.256Z,50.78
2018-03-20T00:08:37.427Z,46.14
2018-03-20T00:09:37.614Z,45.17
2018-03-20T00:10:37.767Z,45.41
2018-03-20T00:11:37.928Z,45.65
2018-03-20T00:12:38.089Z,50.29
2018-03-20T00:13:38.279Z,50.54
2018-03-20T00:14:38.432Z,45.17
2018-03-20T00:15:38.604Z,45.65
2018-03-20T00:16:38.778Z,56.15
2018-03-20T00:17:38.947Z,51.03
2018-03-20T00:18:39.118Z,50.05
2018-03-20T00:19:39.287Z,45.17
2018-03-20T00:20:39.458Z,47.12
2018-03-20T00:21:39.632Z,55.42
2018-03-20T00:22:39.793Z,55.42
2018-03-20T00:23:39.966Z,62.99
2018-03-20T00:24:40.138Z,56.88
2018-03-20T00:25:40.308Z,56.40
2018-03-20T00:27:40.648Z,56.88
2018-03-20T00:28:40.814Z,51.03
2018-03-20T00:29:40.989Z,55.66
2018-03-20T00:30:41.200Z,47.12
2018-03-20T00:31:41.325Z,46.63
2018-03-20T00:32:41.499Z,45.65
2018-03-20T00:33:41.669Z,53.71
2018-03-20T00:34:41.838Z,48.34
2018-03-20T00:35:42.012Z,48.58
2018-03-20T00:36:42.549Z,47.85
2018-03-20T00:37:42.353Z,49.56
2018-03-20T00:38:42.527Z,63.23
2018-03-20T00:39:42.698Z,54.20
2018-03-20T00:40:42.864Z,53.22
2018-03-20T00:41:43.036Z,59.33
2018-03-20T00:42:43.207Z,46.39
2018-03-20T00:43:43.378Z,52.98
2018-03-20T00:44:43.552Z,46.39
2018-03-20T00:45:43.721Z,52.49
2018-03-20T00:46:43.883Z,52.98
2018-03-20T00:47:44.057Z,56.88
2018-03-20T00:48:44.222Z,58.59
2018-03-20T00:49:44.396Z,46.88
2018-03-20T00:50:44.563Z,53.71
2018-03-20T00:51:44.740Z,53.96
2018-03-20T00:52:44.922Z,51.51
2018-03-20T00:53:45.070Z,47.12
2018-03-20T00:54:45.245Z,47.36
2018-03-20T00:55:45.413Z,47.85
2018-03-20T00:56:45.595Z,49.32
2018-03-20T00:57:45.754Z,60.30
2018-03-20T00:58:45.921Z,49.56
2018-03-20T00:59:46.089Z,48.10
2018-03-20T01:00:46.262Z,47.12
2018-03-20T01:01:46.431Z,49.56
2018-03-20T01:02:46.607Z,50.54
2018-03-20T01:03:46.769Z,54.93
2018-03-20T01:04:46.945Z,46.63
2018-03-20T01:05:47.115Z,47.36
2018-03-20T01:06:47.284Z,45.90
2018-03-20T01:07:47.456Z,50.05
2018-03-20T01:08:47.629Z,51.76
2018-03-20T01:09:47.803Z,47.85
2018-03-20T01:10:47.961Z,47.36
2018-03-20T01:11:48.128Z,52.00
2018-03-20T01:12:48.301Z,45.90
2018-03-20T01:13:48.474Z,54.93
2018-03-20T01:14:48.645Z,57.13
2018-03-20T01:15:48.813Z,59.57
2018-03-20T01:16:48.983Z,63.96
2018-03-20T01:17:49.151Z,45.41
2018-03-20T01:18:49.329Z,62.99
2018-03-20T01:19:49.492Z,60.55
2018-03-20T01:20:49.660Z,51.76
2018-03-20T01:21:49.837Z,56.40
2018-03-20T01:22:49.998Z,57.37
2018-03-20T01:23:50.167Z,47.36
2018-03-20T01:24:50.337Z,55.66
2018-03-20T01:25:50.512Z,53.47
2018-03-20T01:26:50.671Z,48.83
2018-03-20T01:27:50.851Z,49.07
2018-03-20T01:28:51.017Z,46.14
2018-03-20T01:29:51.187Z,46.39
2018-03-20T01:30:51.355Z,51.03
2018-03-20T01:31:51.525Z,51.27
2018-03-20T01:32:51.693Z,50.05
2018-03-20T01:33:51.866Z,46.14
2018-03-20T01:34:52.031Z,45.90
2018-03-20T01:35:52.203Z,46.14
2018-03-20T01:36:52.378Z,57.62
2018-03-20T01:37:52.539Z,49.56
2018-03-20T01:38:52.707Z,53.22
2018-03-20T01:39:52.877Z,48.10
2018-03-20T01:40:53.044Z,45.17
2018-03-20T01:41:53.211Z,51.76
2018-03-20T01:42:53.382Z,50.29
2018-03-20T01:43:53.553Z,47.12
2018-03-20T01:44:53.718Z,51.03
2018-03-20T01:45:53.881Z,44.92
2018-03-20T01:46:54.088Z,49.56
2018-03-20T01:47:54.226Z,51.51
2018-03-20T01:48:54.395Z,45.41
2018-03-20T01:49:54.564Z,48.58
2018-03-20T01:50:54.733Z,45.17
2018-03-20T01:51:54.902Z,59.33
2018-03-20T01:52:55.078Z,50.78
2018-03-20T01:53:55.237Z,48.58
2018-03-20T01:54:55.410Z,48.58
2018-03-20T01:55:55.576Z,46.88
2018-03-20T01:56:55.745Z,51.03
2018-03-20T01:57:55.917Z,62.74
2018-03-20T01:58:56.083Z,59.81
2018-03-20T01:59:56.255Z,53.96
2018-03-20T02:00:56.424Z,61.04
2018-03-20T02:01:56.595Z,50.54
2018-03-20T02:02:56.760Z,45.41
2018-03-20T02:03:56.931Z,45.17
2018-03-20T02:04:57.101Z,52.73
2018-03-20T02:05:57.267Z,55.66
2018-03-20T02:06:57.435Z,48.83
2018-03-20T02:07:57.606Z,48.83
2018-03-20T02:08:57.782Z,46.14
2018-03-20T02:09:57.950Z,48.34
2018-03-20T02:10:58.111Z,57.13
2018-03-20T02:11:58.281Z,51.51
2018-03-20T02:12:58.450Z,49.07
2018-03-20T02:13:58.626Z,46.14
2018-03-20T02:14:58.801Z,46.39
2018-03-20T02:15:58.962Z,46.39
2018-03-20T02:16:59.125Z,52.73
2018-03-20T02:17:59.298Z,50.78
2018-03-20T02:18:59.470Z,46.39
2018-03-20T02:19:59.637Z,56.40
2018-03-20T02:20:59.810Z,46.88
2018-03-20T02:21:59.980Z,62.74
2018-03-20T02:23:00.149Z,52.98
2018-03-20T02:24:00.325Z,49.32
2018-03-20T02:25:00.490Z,46.14
2018-03-20T02:26:00.664Z,46.14
2018-03-20T02:27:00.839Z,46.63
2018-03-20T02:28:01.000Z,52.25
2018-03-20T02:29:01.172Z,52.73
2018-03-20T02:30:01.347Z,46.14
2018-03-20T02:31:01.510Z,45.90
2018-03-20T02:32:01.685Z,49.80
2018-03-20T02:33:01.852Z,51.27
2018-03-20T02:34:02.033Z,52.73
2018-03-20T02:35:02.200Z,46.39
2018-03-20T02:36:02.362Z,46.14
2018-03-20T02:37:02.529Z,48.10
2018-03-20T02:38:02.697Z,46.63
2018-03-20T02:39:02.877Z,55.18
2018-03-20T02:40:03.036Z,59.57
2018-03-20T02:41:03.205Z,46.63
2018-03-20T02:42:03.371Z,46.39
2018-03-20T02:43:03.545Z,59.33
2018-03-20T02:44:03.722Z,60.30
2018-03-20T02:45:03.880Z,52.73
2018-03-20T02:46:04.050Z,52.98
2018-03-20T02:47:04.218Z,48.83
2018-03-20T02:48:04.385Z,45.90
2018-03-20T02:49:04.555Z,53.96
2018-03-20T02:50:04.754Z,51.76
2018-03-20T02:51:04.956Z,53.47
2018-03-20T02:52:05.071Z,51.03
2018-03-20T02:53:05.240Z,45.90
2018-03-20T02:54:05.406Z,45.90
2018-03-20T02:55:05.584Z,51.76
2018-03-20T02:56:05.749Z,49.56
2018-03-20T02:57:05.913Z,55.18
2018-03-20T02:58:06.090Z,46.63
2018-03-20T02:59:06.253Z,47.61
2018-03-20T03:00:06.417Z,50.29
2018-03-20T03:01:06.589Z,52.00
2018-03-20T03:02:06.756Z,45.90
2018-03-20T03:03:06.926Z,48.10
2018-03-20T03:04:07.099Z,45.90
2018-03-20T03:05:07.273Z,51.76
2018-03-20T03:06:07.433Z,51.51
2018-03-20T03:07:07.607Z,56.88
2018-03-20T03:08:07.771Z,47.12
2018-03-20T03:09:07.941Z,47.36
2018-03-20T03:10:08.112Z,47.36
2018-03-20T03:11:08.281Z,51.27
2018-03-20T03:12:08.445Z,53.22
2018-03-20T03:13:08.607Z,50.29
2018-03-20T03:14:08.783Z,46.88
2018-03-20T03:15:08.951Z,46.88
2018-03-20T03:16:09.123Z,47.12
2018-03-20T03:17:09.289Z,52.49
2018-03-20T03:18:09.464Z,58.11
2018-03-20T03:19:09.632Z,66.89
2018-03-20T03:20:09.800Z,57.13
2018-03-20T03:21:09.965Z,63.48
2018-03-20T03:22:10.133Z,54.20
2018-03-20T03:23:10.307Z,51.51
2018-03-20T03:24:10.470Z,50.05
2018-03-20T03:25:10.639Z,46.63
2018-03-20T03:26:10.808Z,46.88
2018-03-20T03:27:10.978Z,48.34
2018-03-20T03:28:11.146Z,51.51
2018-03-20T03:29:11.315Z,54.20
2018-03-20T03:30:11.488Z,46.39
2018-03-20T03:31:11.663Z,46.14
2018-03-20T03:32:11.827Z,47.36
2018-03-20T03:33:11.992Z,60.06
2018-03-20T03:34:12.154Z,51.27
2018-03-20T03:35:12.341Z,51.03
2018-03-20T03:36:12.500Z,56.15
2018-03-20T03:37:12.658Z,47.36
2018-03-20T03:38:12.840Z,48.34
2018-03-20T03:39:13.025Z,50.54
2018-03-20T03:40:13.211Z,52.25
2018-03-20T03:41:13.376Z,55.42
2018-03-20T03:42:13.546Z,58.11
2018-03-20T03:43:13.714Z,49.32
2018-03-20T03:44:13.879Z,49.07
2018-03-20T03:45:14.044Z,60.30
2018-03-20T03:46:14.208Z,57.37
2018-03-20T03:47:14.380Z,52.49
2018-03-20T03:48:14.549Z,47.61
2018-03-20T03:49:14.715Z,58.59
2018-03-20T03:50:14.890Z,51.03
2018-03-20T03:51:15.050Z,55.66
2018-03-20T03:52:15.220Z,47.36
2018-03-20T03:53:15.390Z,54.93
2018-03-20T03:54:15.546Z,62.74
2018-03-20T03:55:15.724Z,64.45
2018-03-20T03:56:15.893Z,51.51
2018-03-20T03:57:16.069Z,50.29
2018-03-20T03:58:16.230Z,47.61
2018-03-20T03:59:16.398Z,54.44
2018-03-20T04:00:16.568Z,63.96
2018-03-20T04:01:17.501Z,60.55
2018-03-20T04:02:16.925Z,52.25
2018-03-20T04:03:17.087Z,47.61
2018-03-20T04:04:17.257Z,46.88
2018-03-20T04:05:17.424Z,47.12
2018-03-20T04:06:17.593Z,54.20
2018-03-20T04:07:17.763Z,52.25
2018-03-20T04:08:17.934Z,50.54
2018-03-20T04:09:18.110Z,60.30
2018-03-20T04:10:18.271Z,62.74
2018-03-20T04:11:18.439Z,47.85
2018-03-20T04:12:18.629Z,54.20
2018-03-20T04:13:18.772Z,55.18
2018-03-20T04:14:18.944Z,49.32
2018-03-20T04:15:19.114Z,47.36
2018-03-20T04:16:19.289Z,47.12
2018-03-20T04:17:19.450Z,47.36
2018-03-20T04:18:19.619Z,51.51
2018-03-20T04:19:19.789Z,53.47
2018-03-20T04:20:19.949Z,47.61
2018-03-20T04:21:20.122Z,48.58
2018-03-20T04:22:20.546Z,47.85
2018-03-20T04:23:20.466Z,47.61
2018-03-20T04:24:20.624Z,52.73
2018-03-20T04:25:20.798Z,50.05
2018-03-20T04:26:20.966Z,58.11
2018-03-20T04:27:21.131Z,54.69
2018-03-20T04:28:21.304Z,52.25
2018-03-20T04:29:21.484Z,59.57
2018-03-20T04:30:21.646Z,67.87
2018-03-20T04:31:21.817Z,59.81
2018-03-20T04:32:21.992Z,62.01
2018-03-20T04:33:22.153Z,61.52
2018-03-20T04:34:22.331Z,55.66
2018-03-20T04:36:22.660Z,65.92
2018-03-20T04:37:22.834Z,60.06
2018-03-20T04:38:22.997Z,48.34
2018-03-20T04:39:23.169Z,50.29
2018-03-20T04:40:23.332Z,56.40
2018-03-20T04:41:23.499Z,52.25
2018-03-20T04:42:23.667Z,50.54
2018-03-20T04:43:23.851Z,48.34
2018-03-20T04:44:24.004Z,49.07
2018-03-20T04:45:24.183Z,62.26
2018-03-20T04:46:24.342Z,51.76
2018-03-20T04:47:24.511Z,76.17
2018-03-20T04:49:24.849Z,48.58
2018-03-20T04:50:25.013Z,48.10
2018-03-20T04:51:25.189Z,58.59
2018-03-20T04:52:25.354Z,52.49
2018-03-20T04:53:25.521Z,54.69
2018-03-20T04:54:25.685Z,52.00
2018-03-20T04:55:25.856Z,51.03
2018-03-20T04:56:26.031Z,68.60
2018-03-20T04:57:26.195Z,71.78
2018-03-20T04:59:26.594Z,54.44
2018-03-20T05:00:26.692Z,67.38
2018-03-20T05:01:26.857Z,54.69
2018-03-20T05:02:27.033Z,53.71
2018-03-20T05:03:27.201Z,61.04
2018-03-20T05:04:27.361Z,61.28
2018-03-20T05:05:27.530Z,48.34
2018-03-20T05:06:27.704Z,65.19
2018-03-20T05:07:27.867Z,51.03
2018-03-20T05:08:28.030Z,55.66
2018-03-20T05:09:28.205Z,52.73
2018-03-20T05:10:28.381Z,54.44
2018-03-20T05:11:28.546Z,57.86
2018-03-20T05:12:28.712Z,55.42
2018-03-20T05:13:28.876Z,53.96
2018-03-20T05:14:29.053Z,58.11
2018-03-20T05:15:29.218Z,68.12
2018-03-20T05:16:29.387Z,52.49
2018-03-20T05:17:29.554Z,58.59
2018-03-20T05:18:29.724Z,51.03
2018-03-20T05:19:29.891Z,58.59
2018-03-20T05:20:30.062Z,52.49
2018-03-20T05:21:30.231Z,57.13
2018-03-20T05:22:30.400Z,55.66
2018-03-20T05:23:30.569Z,58.59
2018-03-20T05:24:30.736Z,59.33
2018-03-20T05:25:30.914Z,61.04
2018-03-20T05:26:31.079Z,59.57
2018-03-20T05:27:31.244Z,66.16
2018-03-20T05:28:31.413Z,66.65
2018-03-20T05:29:31.580Z,61.28
2018-03-20T05:30:31.756Z,74.71
2018-03-20T05:31:31.919Z,59.57
2018-03-20T05:32:32.087Z,68.12
2018-03-20T05:33:32.257Z,71.29
2018-03-20T05:34:32.446Z,55.91
2018-03-20T05:35:32.592Z,68.36
2018-03-20T05:36:32.762Z,59.08
2018-03-20T05:37:32.930Z,69.09
2018-03-20T05:38:33.099Z,58.11
2018-03-20T05:39:33.268Z,55.18
2018-03-20T05:40:33.438Z,59.08
2018-03-20T05:41:33.606Z,60.79
2018-03-20T05:42:33.775Z,59.33
2018-03-20T05:43:33.946Z,55.42
2018-03-20T05:44:34.114Z,61.28
2018-03-20T05:45:34.282Z,71.29
2018-03-20T05:46:34.451Z,56.88
2018-03-20T05:47:34.861Z,53.71
2018-03-20T05:48:34.794Z,56.40
2018-03-20T05:49:34.958Z,79.35
2018-03-20T05:50:35.137Z,94.97
2018-03-20T05:51:35.304Z,78.37
2018-03-20T05:52:35.472Z,62.26
2018-03-20T05:53:35.646Z,60.79
2018-03-20T05:54:35.811Z,60.30
2018-03-20T05:55:35.994Z,68.12
2018-03-20T05:56:36.143Z,71.78
2018-03-20T05:57:36.311Z,60.55
2018-03-20T05:58:36.513Z,71.78
2018-03-20T05:59:36.647Z,77.64
2018-03-20T06:00:36.824Z,79.10
2018-03-20T06:01:36.993Z,84.72
2018-03-20T06:02:37.165Z,83.50
2018-03-20T06:03:37.336Z,82.03
2018-03-20T06:04:37.509Z,83.01
2018-03-20T06:05:37.672Z,82.28
2018-03-20T06:06:37.842Z,74.71
2018-03-20T06:07:38.022Z,60.06
2018-03-20T06:08:38.186Z,68.12
2018-03-20T06:09:38.347Z,72.75
2018-03-20T06:10:38.524Z,70.31
2018-03-20T06:11:38.694Z,64.94
2018-03-20T06:12:38.863Z,86.43
2018-03-20T06:13:39.030Z,63.72
2018-03-20T06:14:39.191Z,59.81
2018-03-20T06:15:39.367Z,83.98
2018-03-20T06:16:39.531Z,67.63
2018-03-20T06:17:39.698Z,82.52
2018-03-20T06:18:39.872Z,68.60
2018-03-20T06:19:40.042Z,75.68
2018-03-20T06:20:40.211Z,70.80
2018-03-20T06:21:40.383Z,88.87
2018-03-20T06:22:40.555Z,85.45
2018-03-20T06:23:40.726Z,67.63
2018-03-20T06:24:40.894Z,64.45
2018-03-20T06:25:41.063Z,62.26
2018-03-20T06:26:41.231Z,63.72
2018-03-20T06:27:41.452Z,56.64
2018-03-20T06:28:41.601Z,72.02
2018-03-20T06:29:41.719Z,64.70
2018-03-20T06:30:41.895Z,68.60
2018-03-20T06:31:42.068Z,62.74
2018-03-20T06:32:42.228Z,68.60
2018-03-20T06:33:42.397Z,65.92
2018-03-20T06:34:42.565Z,71.53
2018-03-20T06:35:42.736Z,71.29
2018-03-20T06:36:42.905Z,66.89
2018-03-20T06:37:43.085Z,66.65
2018-03-20T06:38:43.273Z,68.12
2018-03-20T06:39:43.421Z,69.82
2018-03-20T06:40:43.591Z,67.87
2018-03-20T06:41:43.767Z,68.85
2018-03-20T06:42:43.939Z,70.56
2018-03-20T06:43:44.112Z,67.38
2018-03-20T06:44:44.276Z,67.38
2018-03-20T06:45:44.448Z,70.07
2018-03-20T06:46:44.618Z,62.01
2018-03-20T06:47:44.786Z,66.16
2018-03-20T06:48:44.949Z,77.64
2018-03-20T06:49:45.123Z,78.37
2018-03-20T06:50:45.300Z,70.80
2018-03-20T06:51:45.472Z,69.09
2018-03-20T06:52:45.640Z,66.89
2018-03-20T06:53:45.802Z,76.17
2018-03-20T06:54:45.975Z,57.37
2018-03-20T06:55:46.144Z,54.93
2018-03-20T06:56:46.312Z,67.87
2018-03-20T06:57:46.481Z,57.62
2018-03-20T06:58:46.652Z,56.64
2018-03-20T06:59:46.823Z,77.88
2018-03-20T07:00:47.942Z,70.56
2018-03-20T07:01:47.152Z,61.52
2018-03-20T07:02:47.319Z,61.52
2018-03-20T07:03:47.492Z,60.06
2018-03-20T07:04:47.656Z,64.70
2018-03-20T07:05:47.831Z,71.29
2018-03-20T07:06:47.995Z,77.15
2018-03-20T07:07:48.224Z,61.04
2018-03-20T07:08:48.403Z,57.37
2018-03-20T07:09:48.503Z,72.02
2018-03-20T07:10:48.672Z,57.13
2018-03-20T07:11:48.873Z,60.06
2018-03-20T07:12:49.008Z,76.66
2018-03-20T07:13:49.176Z,60.79
2018-03-20T07:14:49.348Z,60.06
2018-03-20T07:15:49.519Z,72.51
2018-03-20T07:16:49.686Z,62.50
2018-03-20T07:17:49.862Z,55.18
2018-03-20T07:18:50.040Z,58.59
2018-03-20T07:19:50.200Z,64.21
2018-03-20T07:20:50.369Z,67.38
2018-03-20T07:21:50.536Z,64.70
2018-03-20T07:22:50.765Z,69.09
2018-03-20T07:23:50.885Z,73.49
2018-03-20T07:24:51.054Z,72.02
2018-03-20T07:25:51.234Z,64.45
2018-03-20T07:26:51.403Z,74.46
2018-03-20T07:27:51.580Z,78.13
2018-03-20T07:28:51.748Z,74.95
2018-03-20T07:29:51.916Z,74.71
2018-03-20T07:30:52.091Z,77.88
2018-03-20T07:31:52.255Z,75.93
2018-03-20T07:32:52.432Z,63.48
2018-03-20T07:33:52.589Z,75.20
2018-03-20T07:34:52.758Z,70.31
2018-03-20T07:35:52.924Z,65.43
2018-03-20T07:36:53.095Z,69.09
2018-03-20T07:37:53.264Z,67.87
2018-03-20T07:38:53.438Z,61.04
2018-03-20T07:39:53.618Z,75.68
2018-03-20T07:40:53.775Z,67.14
2018-03-20T07:41:53.953Z,63.96
2018-03-20T07:42:54.152Z,63.48
2018-03-20T07:43:54.319Z,73.24
2018-03-20T07:44:54.456Z,66.41
2018-03-20T07:45:54.627Z,76.17
2018-03-20T07:46:54.793Z,74.71
2018-03-20T07:47:54.962Z,72.02
2018-03-20T07:48:55.134Z,73.24
2018-03-20T07:49:55.303Z,74.71
2018-03-20T07:50:55.489Z,71.53
2018-03-20T07:51:55.643Z,73.00
2018-03-20T07:52:55.812Z,70.80
2018-03-20T07:53:55.988Z,74.22
2018-03-20T07:54:56.158Z,78.37
2018-03-20T07:55:56.334Z,72.02
2018-03-20T07:56:56.504Z,65.43
2018-03-20T07:57:56.675Z,60.30
2018-03-20T07:58:56.846Z,70.56
2018-03-20T07:59:57.016Z,62.26
2018-03-20T08:00:57.189Z,69.58
2018-03-20T08:01:57.355Z,58.35
2018-03-20T08:02:57.531Z,59.08
2018-03-20T08:03:57.694Z,59.81
2018-03-20T08:04:57.848Z,68.36
2018-03-20T08:05:58.008Z,75.68
2018-03-20T08:06:58.183Z,67.14
2018-03-20T08:07:58.407Z,59.33
2018-03-20T08:08:58.519Z,62.26
2018-03-20T08:09:58.692Z,69.09
2018-03-20T08:10:58.863Z,77.39
2018-03-20T08:11:59.041Z,67.38
2018-03-20T08:12:59.215Z,65.92
2018-03-20T08:13:59.376Z,66.16
2018-03-20T08:14:59.553Z,64.21
2018-03-20T08:15:59.718Z,66.65
2018-03-20T08:16:59.887Z,60.30
2018-03-20T08:18:00.063Z,59.57
2018-03-20T08:19:00.237Z,65.43
2018-03-20T08:20:00.402Z,70.31
2018-03-20T08:21:00.591Z,73.00
2018-03-20T08:22:00.746Z,71.29
2018-03-20T08:23:00.905Z,64.94
2018-03-20T08:24:01.080Z,88.62
2018-03-20T08:25:01.253Z,70.80
2018-03-20T08:26:01.426Z,65.92
2018-03-20T08:27:01.579Z,70.56
2018-03-20T08:28:01.754Z,63.48
2018-03-20T08:29:01.935Z,69.82
2018-03-20T08:30:02.086Z,72.27
2018-03-20T08:32:02.441Z,61.04
2018-03-20T08:33:02.599Z,66.41
2018-03-20T08:34:02.769Z,65.43
2018-03-20T08:35:02.940Z,72.02
2018-03-20T08:36:03.126Z,75.20
2018-03-20T08:37:03.288Z,63.96
2018-03-20T08:38:03.455Z,62.01
2018-03-20T08:39:03.629Z,61.28
2018-03-20T08:40:03.805Z,59.33
2018-03-20T08:41:03.977Z,62.01
2018-03-20T08:42:04.139Z,60.55
2018-03-20T08:43:04.312Z,67.87
2018-03-20T08:44:04.484Z,69.82
2018-03-20T08:45:04.650Z,71.78
2018-03-20T08:46:04.821Z,72.27
2018-03-20T08:47:04.994Z,72.27
2018-03-20T08:48:05.164Z,71.53
2018-03-20T08:49:05.336Z,63.96
2018-03-20T08:50:05.507Z,62.74
2018-03-20T08:51:05.690Z,68.60
2018-03-20T08:52:05.846Z,70.56
2018-03-20T08:53:06.018Z,63.23
2018-03-20T08:54:06.209Z,71.04
2018-03-20T08:55:06.355Z,64.70
2018-03-20T08:56:06.527Z,70.07
2018-03-20T08:57:06.699Z,79.10
2018-03-20T08:58:06.868Z,69.09
2018-03-20T08:59:07.043Z,63.72
2018-03-20T09:00:07.212Z,71.53
2018-03-20T09:01:07.384Z,66.16
2018-03-20T09:02:07.688Z,71.04
2018-03-20T09:03:07.745Z,58.11
2018-03-20T09:04:07.923Z,57.13
2018-03-20T09:05:08.083Z,57.62
2018-03-20T09:06:08.259Z,63.96
2018-03-20T09:07:08.416Z,76.42
2018-03-20T09:08:08.589Z,70.80
2018-03-20T09:09:08.762Z,71.53
2018-03-20T09:10:08.933Z,66.89
2018-03-20T09:11:09.125Z,83.01
2018-03-20T09:12:09.285Z,69.09
2018-03-20T09:13:09.456Z,61.77
2018-03-20T09:14:09.634Z,62.26
2018-03-20T09:15:09.810Z,69.09
2018-03-20T09:16:09.976Z,62.99
2018-03-20T09:17:10.140Z,64.70
2018-03-20T09:18:10.311Z,60.30
2018-03-20T09:19:10.479Z,64.21
2018-03-20T09:20:10.658Z,57.62
2018-03-20T09:21:10.824Z,66.41
2018-03-20T09:22:10.997Z,72.75
2018-03-20T09:23:11.169Z,67.14
2018-03-20T09:24:11.340Z,69.58
2018-03-20T09:25:11.514Z,64.70
2018-03-20T09:26:11.693Z,60.79
2018-03-20T09:27:11.848Z,66.16
2018-03-20T09:28:12.022Z,67.87
2018-03-20T09:29:12.191Z,79.59
2018-03-20T09:30:12.364Z,70.80
2018-03-20T09:31:12.536Z,65.92
2018-03-20T09:32:12.710Z,72.27
2018-03-20T09:33:12.887Z,70.07
2018-03-20T09:34:13.064Z,68.36
2018-03-20T09:35:13.238Z,73.00
2018-03-20T09:36:13.440Z,71.78
2018-03-20T09:37:13.598Z,69.34
2018-03-20T09:38:13.769Z,62.50
2018-03-20T09:39:13.948Z,60.79
2018-03-20T09:40:14.113Z,60.30
2018-03-20T09:41:14.277Z,67.38
2018-03-20T09:42:14.477Z,64.94
2018-03-20T09:43:14.608Z,72.75
2018-03-20T09:44:14.776Z,72.75
2018-03-20T09:45:14.959Z,66.89
2018-03-20T09:46:15.125Z,63.48
2018-03-20T09:47:15.293Z,66.89
2018-03-20T09:48:15.462Z,68.60
2018-03-20T09:49:15.632Z,81.30
2018-03-20T09:50:15.794Z,62.74
2018-03-20T09:51:15.996Z,63.23
2018-03-20T09:52:16.139Z,71.29
2018-03-20T09:53:16.315Z,66.89
2018-03-20T09:54:16.489Z,82.76
2018-03-20T09:55:16.659Z,78.13
2018-03-20T09:56:16.833Z,72.02
2018-03-20T09:57:17.008Z,60.79
2018-03-20T09:58:17.189Z,65.92
2018-03-20T09:59:17.343Z,60.79
2018-03-20T10:00:17.763Z,68.12
2018-03-20T10:01:17.688Z,72.02
2018-03-20T10:02:17.857Z,72.02
2018-03-20T10:03:18.035Z,65.67
2018-03-20T10:04:18.201Z,72.75
2018-03-20T10:05:18.371Z,63.96
2018-03-20T10:06:18.537Z,61.28
2018-03-20T10:07:18.749Z,65.67
2018-03-20T10:08:18.880Z,63.96
2018-03-20T10:09:19.057Z,70.31
2018-03-20T10:10:19.228Z,70.80
2018-03-20T10:11:19.403Z,83.98
2018-03-20T10:12:19.573Z,72.75
2018-03-20T10:13:19.739Z,62.74
2018-03-20T10:14:19.911Z,59.33
2018-03-20T10:15:20.075Z,84.47
2018-03-20T10:16:20.245Z,75.68
2018-03-20T10:17:20.410Z,65.92
2018-03-20T10:18:20.585Z,76.17
2018-03-20T10:19:20.758Z,68.85
2018-03-20T10:20:20.956Z,61.77
2018-03-20T10:21:21.103Z,64.45
2018-03-20T10:22:21.281Z,86.67
2018-03-20T10:23:21.455Z,87.16
2018-03-20T10:24:21.625Z,66.89
2018-03-20T10:25:21.791Z,72.27
2018-03-20T10:26:21.970Z,75.93
2018-03-20T10:27:22.140Z,59.33
2018-03-20T10:28:22.315Z,61.52
2018-03-20T10:29:22.485Z,70.07
2018-03-20T10:30:22.656Z,83.25
2018-03-20T10:31:22.828Z,85.21
2018-03-20T10:32:23.006Z,63.96
2018-03-20T10:33:23.177Z,66.16
2018-03-20T10:34:23.329Z,69.82
2018-03-20T10:35:23.557Z,71.53
2018-03-20T10:36:23.658Z,99.37
2018-03-20T10:37:23.833Z,86.18
2018-03-20T10:38:24.023Z,98.88
2018-03-20T10:39:24.183Z,83.74
2018-03-20T10:40:24.365Z,86.43
2018-03-20T10:41:24.531Z,70.56
2018-03-20T10:42:24.697Z,68.36
2018-03-20T10:43:24.869Z,73.73
2018-03-20T10:44:25.055Z,74.22
2018-03-20T10:45:25.210Z,86.18
2018-03-20T10:46:25.387Z,67.38
2018-03-20T10:47:25.561Z,67.87
2018-03-20T10:48:25.736Z,69.09
2018-03-20T10:49:25.902Z,69.09
2018-03-20T10:50:26.116Z,86.43
2018-03-20T10:51:26.249Z,87.40
2018-03-20T10:52:26.409Z,67.87
2018-03-20T10:53:26.584Z,61.77
2018-03-20T10:54:26.763Z,65.43
2018-03-20T10:55:26.940Z,72.02
2018-03-20T10:56:27.109Z,69.82
2018-03-20T10:57:27.279Z,59.81
2018-03-20T10:58:27.456Z,60.79
2018-03-20T10:59:27.635Z,86.91
2018-03-20T11:00:27.796Z,85.45
2018-03-20T11:01:27.979Z,85.69
2018-03-20T11:02:28.160Z,86.67
2018-03-20T11:03:28.339Z,84.47
2018-03-20T11:04:28.506Z,85.94
2018-03-20T11:05:28.706Z,86.18
2018-03-20T11:06:28.851Z,87.40
2018-03-20T11:07:29.019Z,72.75
2018-03-20T11:08:29.185Z,58.59
2018-03-20T11:09:29.363Z,63.48
2018-03-20T11:10:29.578Z,65.92
2018-03-20T11:11:29.709Z,60.30
2018-03-20T11:12:29.881Z,76.90
2018-03-20T11:13:30.048Z,61.52
2018-03-20T11:14:30.219Z,99.85
2018-03-20T11:15:30.405Z,86.67
2018-03-20T11:16:30.578Z,99.12
2018-03-20T11:17:30.786Z,74.22
2018-03-20T11:18:30.925Z,61.28
2018-03-20T11:19:31.100Z,77.88
2018-03-20T11:20:31.282Z,80.32
2018-03-20T11:21:32.190Z,69.09
2018-03-20T11:22:31.609Z,65.67
2018-03-20T11:23:31.779Z,66.41
2018-03-20T11:24:31.957Z,61.04
2018-03-20T11:25:32.236Z,67.14
2018-03-20T11:26:32.255Z,71.04
2018-03-20T11:27:32.460Z,74.71
2018-03-20T11:28:32.587Z,75.44
2018-03-20T11:29:32.763Z,70.07
2018-03-20T11:30:32.936Z,69.82
2018-03-20T11:31:33.109Z,67.63
2018-03-20T11:32:33.283Z,61.52
2018-03-20T11:33:33.459Z,77.15
2018-03-20T11:34:33.624Z,72.51
2018-03-20T11:35:33.797Z,62.99
2018-03-20T11:36:33.968Z,65.43
2018-03-20T11:37:34.141Z,61.04
2018-03-20T11:38:34.317Z,63.48
2018-03-20T11:39:34.501Z,70.56
2018-03-20T11:40:34.647Z,60.79
2018-03-20T11:41:34.817Z,66.16
2018-03-20T11:42:35.001Z,61.28
2018-03-20T11:43:35.164Z,83.74
2018-03-20T11:44:35.333Z,62.01
2018-03-20T11:45:35.511Z,71.29
2018-03-20T11:46:35.685Z,62.99
2018-03-20T11:47:35.861Z,59.81
2018-03-20T11:48:36.031Z,60.30
2018-03-20T11:49:36.199Z,57.13
2018-03-20T11:50:36.384Z,60.06
2018-03-20T11:51:36.544Z,62.50
2018-03-20T11:52:36.721Z,59.33
2018-03-20T11:53:36.885Z,64.94
2018-03-20T11:54:37.060Z,65.19
2018-03-20T11:55:37.235Z,62.74
2018-03-20T11:56:37.408Z,66.41
2018-03-20T11:57:37.582Z,92.77
2018-03-20T11:58:37.755Z,73.73
2018-03-20T11:59:37.930Z,64.21
2018-03-20T12:00:38.104Z,76.90
2018-03-20T12:01:38.284Z,59.33
2018-03-20T12:02:38.453Z,70.80
2018-03-20T12:03:38.623Z,71.29
2018-03-20T12:04:38.810Z,63.72
2018-03-20T12:05:38.977Z,62.99
2018-03-20T12:06:39.146Z,68.85
2018-03-20T12:07:39.323Z,60.06
2018-03-20T12:08:39.494Z,69.34
2018-03-20T12:09:39.676Z,69.82
2018-03-20T12:10:39.842Z,65.92
2018-03-20T12:11:40.025Z,62.74
2018-03-20T12:12:40.190Z,65.67
2018-03-20T12:13:40.365Z,67.63
2018-03-20T12:14:40.527Z,63.23
2018-03-20T12:15:40.719Z,71.78
2018-03-20T12:16:40.886Z,63.23
2018-03-20T12:17:41.072Z,65.19
2018-03-20T12:18:41.229Z,68.60
2018-03-20T12:19:41.400Z,67.63
2018-03-20T12:20:41.574Z,66.41
2018-03-20T12:21:41.743Z,61.77
2018-03-20T12:22:41.920Z,66.65
2018-03-20T12:23:42.097Z,66.89
2018-03-20T12:24:42.264Z,68.60
2018-03-20T12:25:42.445Z,62.26
2018-03-20T12:26:42.613Z,64.21
2018-03-20T12:27:42.792Z,65.67
2018-03-20T12:28:42.964Z,66.89
2018-03-20T12:29:43.138Z,65.43
2018-03-20T12:30:43.320Z,67.87
2018-03-20T12:31:43.486Z,62.74
2018-03-20T12:32:43.654Z,70.31
2018-03-20T12:33:43.834Z,68.60
2018-03-20T12:34:44.004Z,66.16
2018-03-20T12:35:44.429Z,72.75
2018-03-20T12:36:44.361Z,71.78
2018-03-20T12:37:44.555Z,69.82
2018-03-20T12:38:44.705Z,70.56
2018-03-20T12:39:44.880Z,70.56
2018-03-20T12:40:45.051Z,76.42
2018-03-20T12:41:45.241Z,67.63
2018-03-20T12:42:45.404Z,66.16
2018-03-20T12:43:45.572Z,71.04
2018-03-20T12:44:45.760Z,68.60
2018-03-20T12:45:45.915Z,70.31
2018-03-20T12:46:46.176Z,65.92
2018-03-20T12:47:46.261Z,63.48
2018-03-20T12:49:46.603Z,69.58
2018-03-20T12:50:46.782Z,79.10
2018-03-20T12:51:46.956Z,64.94
2018-03-20T12:52:47.147Z,64.45
2018-03-20T12:53:47.294Z,64.70
2018-03-20T12:54:47.478Z,60.30
2018-03-20T12:55:47.646Z,66.16
2018-03-20T12:56:47.823Z,66.41
2018-03-20T12:57:48.069Z,61.77
2018-03-20T12:59:48.343Z,58.59
2018-03-20T13:00:48.525Z,67.38
2018-03-20T13:01:48.693Z,58.59